Time;durP1;ratioP1;P1;durP2;ratioP2;P2;SDS_P1;SDS_P2;PMS_P1;PMS_P2;Temp;Humidity;BMP_temperature;BMP_pressure;BME280_temperature;BME280_humidity;BME280_pressure;Samples;Min_cycle;Max_cycle;Signal;HPM_P1;HPM_P2
2020/12/19 00:02:22;;;;;;;40.10;17.30;;;-1.60;99.90;;;;;;5074381;28;20091;-83
2020/12/19 00:04:48;;;;;;;43.53;16.38;;;-1.50;99.90;;;;;;5074913;28;20045;-83
2020/12/19 00:07:16;;;;;;;34.65;16.02;;;-1.50;99.90;;;;;;5077324;28;20076;-83
2020/12/19 00:09:43;;;;;;;37.75;17.38;;;-1.30;99.90;;;;;;5076061;28;20052;-82
2020/12/19 00:12:09;;;;;;;50.78;18.27;;;-1.30;99.90;;;;;;5075038;28;20568;-83
2020/12/19 00:14:35;;;;;;;50.47;18.83;;;-1.20;99.90;;;;;;5075649;28;20052;-83
2020/12/19 00:17:02;;;;;;;48.38;19.27;;;-1.10;99.90;;;;;;5076538;28;20059;-83
2020/12/19 00:19:28;;;;;;;42.97;17.55;;;-1.00;99.90;;;;;;5074749;28;20044;-83
2020/12/19 00:21:54;;;;;;;39.90;17.63;;;-1.00;99.90;;;;;;5074532;28;20044;-82
2020/12/19 00:24:21;;;;;;;35.33;15.00;;;-1.00;99.90;;;;;;5073480;28;20103;-83
2020/12/19 00:26:47;;;;;;;41.45;16.17;;;-1.00;99.90;;;;;;5073551;28;20508;-83
2020/12/19 00:29:13;;;;;;;38.47;16.33;;;-1.00;99.90;;;;;;5075086;28;20051;-83
2020/12/19 00:31:40;;;;;;;41.38;16.75;;;-1.00;99.90;;;;;;5074210;28;20099;-82
2020/12/19 00:34:07;;;;;;;46.97;17.35;;;-0.90;99.90;;;;;;5074085;28;20051;-83
2020/12/19 00:36:34;;;;;;;33.80;15.65;;;-0.80;99.90;;;;;;5074612;28;20148;-83
2020/12/19 00:39:00;;;;;;;45.97;17.45;;;-0.80;99.90;;;;;;5074928;28;20114;-82
2020/12/19 00:41:27;;;;;;;31.30;14.88;;;-0.80;99.90;;;;;;5072929;28;20136;-82
2020/12/19 00:43:54;;;;;;;35.20;14.00;;;-0.90;99.90;;;;;;5074003;28;20103;-82
2020/12/19 00:46:22;;;;;;;35.22;14.65;;;-1.00;99.90;;;;;;5072909;28;20045;-83
2020/12/19 00:48:48;;;;;;;38.97;16.17;;;-1.00;99.90;;;;;;5072612;28;20083;-83
2020/12/19 00:51:16;;;;;;;32.47;14.07;;;-1.00;99.90;;;;;;5074379;28;20052;-83
2020/12/19 00:53:43;;;;;;;23.70;12.70;;;-1.00;99.90;;;;;;5073773;28;20135;-82
2020/12/19 00:56:18;;;;;;;37.50;15.18;;;-1.10;99.90;;;;;;5073626;28;20048;-83
2020/12/19 00:58:44;;;;;;;28.08;13.43;;;-1.30;99.90;;;;;;5072541;28;20072;-83
2020/12/19 01:01:11;;;;;;;40.15;14.88;;;-1.30;99.90;;;;;;5072772;28;20099;-83
2020/12/19 01:03:37;;;;;;;33.40;13.43;;;-1.30;99.90;;;;;;5073095;28;20048;-82
2020/12/19 01:06:04;;;;;;;29.77;13.05;;;-1.30;99.90;;;;;;5073481;28;20157;-81
2020/12/19 01:08:30;;;;;;;31.50;13.75;;;-1.40;99.90;;;;;;5073874;28;20084;-80
2020/12/19 01:10:57;;;;;;;36.80;15.27;;;-1.40;99.90;;;;;;5073974;28;20080;-81
2020/12/19 01:13:23;;;;;;;34.00;14.98;;;-1.30;99.90;;;;;;5072575;28;20076;-81
2020/12/19 01:15:49;;;;;;;45.45;17.35;;;-1.10;99.90;;;;;;5073436;28;20049;-81
2020/12/19 01:18:17;;;;;;;41.40;15.90;;;-1.10;99.90;;;;;;5072626;28;20055;-81
2020/12/19 01:20:43;;;;;;;37.75;16.27;;;-0.90;99.90;;;;;;5073394;28;20474;-81
2020/12/19 01:23:10;;;;;;;45.42;18.13;;;-1.00;99.90;;;;;;5074070;28;20059;-81
2020/12/19 01:25:36;;;;;;;48.47;16.77;;;-1.10;99.90;;;;;;5076421;28;20049;-82
2020/12/19 01:28:02;;;;;;;27.70;13.82;;;-1.20;99.90;;;;;;5078407;28;20063;-82
2020/12/19 01:30:28;;;;;;;37.40;14.90;;;-1.20;99.90;;;;;;5077186;28;20056;-82
2020/12/19 01:32:55;;;;;;;31.35;14.52;;;-1.20;99.90;;;;;;5078549;28;20052;-82
2020/12/19 01:35:35;;;;;;;30.02;13.25;;;-1.30;99.90;;;;;;5077361;28;20053;-82
2020/12/19 01:38:01;;;;;;;35.45;14.85;;;-1.30;99.90;;;;;;5077957;28;20049;-82
2020/12/19 01:40:29;;;;;;;33.40;13.15;;;-1.30;99.90;;;;;;5076361;28;20329;-82
2020/12/19 01:42:56;;;;;;;32.75;14.25;;;-1.40;99.90;;;;;;5073935;28;20141;-81
2020/12/19 01:45:22;;;;;;;36.55;16.42;;;-1.40;99.90;;;;;;5075412;28;20167;-82
2020/12/19 01:47:48;;;;;;;37.75;15.60;;;-1.40;99.90;;;;;;5076316;28;20087;-81
2020/12/19 01:50:15;;;;;;;40.83;16.23;;;-1.30;99.90;;;;;;5074565;28;20048;-81
2020/12/19 01:52:41;;;;;;;32.03;14.90;;;-1.20;99.90;;;;;;5076851;28;20080;-81
2020/12/19 01:55:08;;;;;;;39.05;16.27;;;-1.10;99.90;;;;;;5080066;28;20602;-81
2020/12/19 01:57:40;;;;;;;32.03;15.00;;;-1.10;99.90;;;;;;5078155;28;20123;-81
2020/12/19 02:00:07;;;;;;;36.08;15.57;;;-1.20;99.90;;;;;;5079118;28;20058;-81
2020/12/19 02:02:33;;;;;;;30.25;14.18;;;-1.20;99.90;;;;;;5076569;28;20132;-81
2020/12/19 02:04:59;;;;;;;33.50;13.63;;;-1.20;99.90;;;;;;5077461;28;20086;-81
2020/12/19 02:07:25;;;;;;;30.02;13.07;;;-1.20;99.90;;;;;;5078751;28;20053;-81
2020/12/19 02:09:53;;;;;;;28.05;12.68;;;-1.30;99.90;;;;;;5078232;28;20056;-81
2020/12/19 02:12:19;;;;;;;38.92;14.85;;;-1.30;99.90;;;;;;5075837;28;20048;-81
2020/12/19 02:14:45;;;;;;;34.30;14.52;;;-1.40;99.90;;;;;;5076416;28;20127;-81
2020/12/19 02:17:14;;;;;;;44.58;16.05;;;-1.40;99.90;;;;;;5078080;28;20045;-81
2020/12/19 02:19:41;;;;;;;42.40;16.52;;;-1.30;99.90;;;;;;5076385;28;20045;-81
2020/12/19 02:22:08;;;;;;;39.75;15.95;;;-1.40;99.90;;;;;;5075546;28;20136;-81
2020/12/19 02:24:35;;;;;;;50.50;18.30;;;-1.30;99.90;;;;;;5076996;28;20079;-81
2020/12/19 02:27:01;;;;;;;41.90;16.65;;;-1.30;99.90;;;;;;5076975;28;20052;-81
2020/12/19 02:29:29;;;;;;;52.03;17.80;;;-1.40;99.90;;;;;;5077220;28;20058;-81
2020/12/19 02:31:58;;;;;;;44.45;16.27;;;-1.40;99.90;;;;;;5075199;28;20044;-81
2020/12/19 02:34:25;;;;;;;50.25;17.52;;;-1.40;99.90;;;;;;5076759;28;20079;-81
2020/12/19 02:36:51;;;;;;;35.75;15.65;;;-1.50;99.90;;;;;;5076623;28;20135;-81
2020/12/19 02:39:18;;;;;;;41.22;15.93;;;-1.40;99.90;;;;;;5075294;28;20040;-81
2020/12/19 02:41:47;;;;;;;35.40;15.23;;;-1.40;99.90;;;;;;5075309;28;20047;-81
2020/12/19 02:44:15;;;;;;;30.65;13.73;;;-1.40;99.90;;;;;;5075317;28;20509;-81
2020/12/19 02:46:42;;;;;;;40.60;15.30;;;-1.30;99.90;;;;;;5076635;28;20064;-81
2020/12/19 02:49:09;;;;;;;44.40;16.38;;;-1.30;99.90;;;;;;5075192;28;20052;-81
2020/12/19 02:51:35;;;;;;;42.50;15.95;;;-1.30;99.90;;;;;;5074989;28;20048;-81
2020/12/19 02:54:02;;;;;;;39.70;16.48;;;-1.10;99.90;;;;;;5075290;28;20474;-81
2020/12/19 02:56:28;;;;;;;39.95;15.68;;;-1.00;99.90;;;;;;5074796;28;20533;-81
2020/12/19 02:58:55;;;;;;;29.98;13.73;;;-1.10;99.90;;;;;;5074603;28;20131;-81
2020/12/19 03:01:29;;;;;;;28.73;12.23;;;-1.10;99.90;;;;;;5075002;28;20429;-81
2020/12/19 03:03:55;;;;;;;27.70;12.43;;;-1.20;99.90;;;;;;5074771;28;20080;-81
2020/12/19 03:06:30;;;;;;;26.52;11.77;;;-1.40;99.90;;;;;;5075732;28;20523;-81
2020/12/19 03:08:56;;;;;;;28.63;12.10;;;-1.50;99.90;;;;;;5075700;28;20471;-81
2020/12/19 03:11:22;;;;;;;32.58;13.60;;;-1.50;99.90;;;;;;5075980;28;20055;-81
2020/12/19 03:13:49;;;;;;;35.20;13.00;;;-1.50;99.90;;;;;;5079251;28;20106;-82
2020/12/19 03:16:16;;;;;;;30.50;12.30;;;-1.50;99.90;;;;;;5080668;28;20048;-82
2020/12/19 03:18:42;;;;;;;25.58;12.38;;;-1.60;99.90;;;;;;5079687;28;20059;-82
2020/12/19 03:21:08;;;;;;;30.95;13.52;;;-1.50;99.90;;;;;;5080221;28;20051;-82
2020/12/19 03:23:35;;;;;;;32.92;12.52;;;-1.60;99.90;;;;;;5080474;28;20070;-81
2020/12/19 03:26:02;;;;;;;35.33;13.50;;;-1.70;99.90;;;;;;5080201;28;20052;-81
2020/12/19 03:28:28;;;;;;;36.40;12.98;;;-1.70;99.90;;;;;;5078120;28;20076;-81
2020/12/19 03:30:54;;;;;;;36.00;12.38;;;-1.70;99.90;;;;;;5077123;28;20068;-81
2020/12/19 03:33:21;;;;;;;25.08;12.60;;;-1.80;99.90;;;;;;5078436;28;20110;-81
2020/12/19 03:35:47;;;;;;;24.50;11.85;;;-1.70;99.90;;;;;;5079648;28;20082;-82
2020/12/19 03:38:14;;;;;;;34.95;13.43;;;-1.70;99.90;;;;;;5077480;28;20127;-81
2020/12/19 03:40:40;;;;;;;28.67;13.40;;;-1.60;99.90;;;;;;5075408;28;20476;-81
2020/12/19 03:43:06;;;;;;;24.10;11.65;;;-1.60;99.90;;;;;;5077094;28;20068;-82
2020/12/19 03:45:32;;;;;;;28.38;12.45;;;-1.70;99.90;;;;;;5076233;28;20064;-81
2020/12/19 03:47:58;;;;;;;24.25;11.13;;;-1.70;99.90;;;;;;5075972;28;20079;-81
2020/12/19 03:50:24;;;;;;;20.73;10.05;;;-1.70;99.90;;;;;;5076668;28;20063;-81
2020/12/19 03:52:51;;;;;;;24.13;11.15;;;-1.70;99.90;;;;;;5076774;28;20079;-81
2020/12/19 03:55:17;;;;;;;28.63;11.15;;;-1.70;99.90;;;;;;5075679;28;20139;-81
2020/12/19 03:57:44;;;;;;;25.25;11.88;;;-1.80;99.90;;;;;;5074560;28;20072;-80
2020/12/19 04:00:10;;;;;;;23.10;11.55;;;-1.70;99.90;;;;;;5073747;28;20455;-81
2020/12/19 04:02:36;;;;;;;21.83;10.55;;;-1.70;99.90;;;;;;5074244;28;20131;-81
2020/12/19 04:05:08;;;;;;;22.40;11.35;;;-1.70;99.90;;;;;;5074613;28;20045;-81
2020/12/19 04:07:34;;;;;;;23.30;10.80;;;-1.70;99.90;;;;;;5074809;28;20551;-81
2020/12/19 04:10:02;;;;;;;23.30;11.75;;;-1.80;99.90;;;;;;5074791;28;20394;-81
2020/12/19 04:12:28;;;;;;;22.13;12.05;;;-1.70;99.90;;;;;;5073616;28;20080;-81
2020/12/19 04:14:54;;;;;;;19.63;10.45;;;-1.70;99.90;;;;;;5075135;28;20080;-81
2020/12/19 04:17:20;;;;;;;22.25;11.32;;;-1.70;99.90;;;;;;5075058;28;20103;-81
2020/12/19 04:19:47;;;;;;;30.60;11.95;;;-1.70;99.90;;;;;;5073722;28;20048;-81
2020/12/19 04:22:13;;;;;;;25.88;11.57;;;-1.80;99.90;;;;;;5072994;28;20055;-81
2020/12/19 04:24:39;;;;;;;26.50;11.30;;;-1.70;99.90;;;;;;5074592;28;20040;-81
2020/12/19 04:27:06;;;;;;;31.42;12.75;;;-1.60;99.90;;;;;;5073212;28;20052;-81
2020/12/19 04:29:32;;;;;;;25.40;11.75;;;-1.50;99.90;;;;;;5073072;28;20143;-81
2020/12/19 04:31:59;;;;;;;30.80;13.32;;;-1.40;99.90;;;;;;5074351;28;20080;-81
2020/12/19 04:34:26;;;;;;;29.38;12.45;;;-1.40;99.90;;;;;;5076745;28;20424;-81
2020/12/19 04:36:53;;;;;;;30.23;12.48;;;-1.40;99.90;;;;;;5099212;28;20032;-82
2020/12/19 04:39:19;;;;;;;32.33;13.95;;;-1.30;99.90;;;;;;5099591;28;20036;-81
2020/12/19 04:41:46;;;;;;;33.72;14.00;;;-1.20;99.90;;;;;;5098686;28;20040;-82
2020/12/19 04:44:13;;;;;;;33.22;14.48;;;-0.90;99.90;;;;;;5083262;28;20075;-82
2020/12/19 04:46:42;;;;;;;34.38;14.35;;;-0.80;99.90;;;;;;5078684;28;20068;-82
2020/12/19 04:49:09;;;;;;;34.22;14.88;;;-0.60;99.90;;;;;;5078764;28;20139;-82
2020/12/19 04:51:36;;;;;;;31.05;13.70;;;-0.50;99.90;;;;;;5079363;28;20056;-82
2020/12/19 04:54:03;;;;;;;32.55;14.52;;;-0.40;99.90;;;;;;5079448;28;20088;-82
2020/12/19 04:56:30;;;;;;;37.33;15.75;;;-0.20;99.90;;;;;;5078447;28;20045;-83
2020/12/19 04:58:59;;;;;;;33.13;16.30;;;0.00;99.90;;;;;;5078966;28;20473;-83
2020/12/19 05:01:25;;;;;;;37.17;15.43;;;0.30;99.90;;;;;;5080705;28;20068;-83
2020/12/19 05:03:53;;;;;;;38.40;16.77;;;0.80;99.90;;;;;;5080201;28;20076;-84
2020/12/19 05:06:21;;;;;;;41.85;17.38;;;0.90;99.90;;;;;;5078022;28;20072;-83
2020/12/19 05:08:49;;;;;;;34.70;15.55;;;0.90;99.90;;;;;;5077563;28;20515;-82
2020/12/19 05:11:15;;;;;;;34.38;16.02;;;1.00;99.90;;;;;;5077872;28;20048;-82
2020/12/19 05:13:43;;;;;;;24.85;13.57;;;1.00;99.90;;;;;;5078907;28;20089;-82
2020/12/19 05:16:12;;;;;;;21.77;11.23;;;0.90;99.90;;;;;;5078490;28;20127;-82
2020/12/19 05:18:39;;;;;;;24.77;13.00;;;0.70;99.90;;;;;;5077119;28;20068;-82
2020/12/19 05:21:06;;;;;;;31.40;13.65;;;0.90;99.90;;;;;;5077205;28;20516;-82
2020/12/19 05:23:37;;;;;;;30.73;14.43;;;1.10;99.90;;;;;;5077461;28;20080;-82
2020/12/19 05:26:05;;;;;;;23.13;12.57;;;1.40;99.90;;;;;;5076485;28;20409;-82
2020/12/19 05:28:33;;;;;;;19.15;11.07;;;1.40;99.90;;;;;;5075288;28;20056;-82
2020/12/19 05:31:00;;;;;;;21.80;10.98;;;1.50;99.90;;;;;;5078679;28;20060;-81
2020/12/19 05:33:38;;;;;;;22.65;12.40;;;1.50;99.90;;;;;;5077097;28;20535;-82
2020/12/19 05:36:05;;;;;;;24.63;12.45;;;1.70;99.90;;;;;;5077440;28;20090;-83
2020/12/19 05:38:37;;;;;;;18.15;10.15;;;1.80;99.90;;;;;;5074302;28;20107;-82
2020/12/19 05:41:04;;;;;;;17.73;10.25;;;1.80;99.90;;;;;;5076454;28;20064;-82
2020/12/19 05:43:31;;;;;;;19.50;11.35;;;1.70;99.90;;;;;;5078060;28;20131;-82
2020/12/19 05:45:57;;;;;;;11.70;7.55;;;1.70;99.90;;;;;;5076924;28;20040;-82
2020/12/19 05:48:24;;;;;;;12.15;8.20;;;1.40;99.90;;;;;;5076137;28;20083;-81
2020/12/19 05:50:50;;;;;;;22.88;13.60;;;1.10;99.90;;;;;;5075286;28;20116;-82
2020/12/19 05:53:19;;;;;;;20.73;12.07;;;1.00;99.90;;;;;;5076284;28;20083;-81
2020/12/19 05:55:46;;;;;;;15.13;9.75;;;0.80;99.90;;;;;;5076321;28;20057;-81
2020/12/19 05:58:12;;;;;;;21.50;11.10;;;0.70;99.90;;;;;;5076300;28;20056;-81
2020/12/19 06:00:39;;;;;;;23.60;11.90;;;0.60;99.90;;;;;;5075414;28;20044;-82
2020/12/19 06:03:06;;;;;;;26.02;14.18;;;0.80;99.90;;;;;;5076015;28;20508;-82
2020/12/19 06:05:32;;;;;;;31.60;15.55;;;1.20;99.90;;;;;;5076926;28;20056;-82
2020/12/19 06:08:20;;;;;;;31.30;14.65;;;1.60;99.90;;;;;;5077515;28;20048;-81
2020/12/19 06:10:48;;;;;;;21.60;12.68;;;1.80;99.90;;;;;;5074022;28;20055;-82
2020/12/19 06:13:16;;;;;;;16.25;10.48;;;2.10;99.90;;;;;;5077073;28;20057;-81
2020/12/19 06:15:58;;;;;;;14.73;9.60;;;2.10;99.90;;;;;;5075767;28;20048;-81
2020/12/19 06:18:47;;;;;;;14.90;9.80;;;2.00;99.90;;;;;;5075255;28;20463;-82
2020/12/19 06:21:15;;;;;;;17.67;10.38;;;2.10;99.90;;;;;;5075007;28;20104;-81
2020/12/19 06:23:42;;;;;;;14.18;10.35;;;2.40;99.90;;;;;;5075241;28;20123;-83
2020/12/19 06:26:10;;;;;;;11.45;8.82;;;2.40;99.90;;;;;;5075749;28;20083;-82
2020/12/19 06:28:39;;;;;;;13.80;9.75;;;2.40;99.90;;;;;;5076315;28;20505;-81
2020/12/19 06:31:06;;;;;;;13.95;9.18;;;2.60;99.90;;;;;;5074164;28;20084;-82
2020/12/19 06:33:33;;;;;;;9.98;8.35;;;2.60;99.90;;;;;;5076372;28;20084;-81
2020/12/19 06:36:04;;;;;;;13.30;9.30;;;2.60;99.90;;;;;;5076943;28;20070;-82
2020/12/19 06:38:47;;;;;;;10.68;8.23;;;2.60;99.90;;;;;;5078785;28;20483;-82
2020/12/19 06:41:50;;;;;;;10.18;7.97;;;2.80;99.90;;;;;;5077783;28;20051;-82
2020/12/19 06:44:28;;;;;;;15.77;9.30;;;2.60;99.90;;;;;;5077905;28;20416;-82
2020/12/19 06:46:55;;;;;;;12.60;8.65;;;2.70;99.90;;;;;;5080649;28;20048;-83
2020/12/19 06:49:27;;;;;;;12.90;8.70;;;2.70;99.90;;;;;;5079298;28;20087;-82
2020/12/19 06:51:59;;;;;;;12.27;9.00;;;2.80;99.90;;;;;;5076136;28;20136;-82
2020/12/19 06:54:30;;;;;;;9.32;8.18;;;2.80;99.90;;;;;;5083222;28;20053;-83
2020/12/19 06:56:57;;;;;;;10.25;8.05;;;2.90;99.90;;;;;;5081475;28;20082;-84
2020/12/19 06:59:24;;;;;;;10.55;8.40;;;2.90;99.90;;;;;;5081037;28;20132;-82
2020/12/19 07:01:51;;;;;;;12.35;8.55;;;2.90;99.90;;;;;;5079652;28;20143;-84
2020/12/19 07:04:36;;;;;;;9.18;7.15;;;3.00;99.90;;;;;;5080200;28;20051;-82
2020/12/19 07:07:07;;;;;;;9.93;7.93;;;2.90;99.90;;;;;;5079752;28;20496;-83
2020/12/19 07:09:35;;;;;;;11.10;7.43;;;2.80;99.90;;;;;;5081020;28;20052;-82
2020/12/19 07:12:02;;;;;;;13.77;10.10;;;2.80;99.90;;;;;;5078158;28;20052;-82
2020/12/19 07:14:40;;;;;;;12.13;9.32;;;2.80;99.90;;;;;;5078468;28;20135;-82
2020/12/19 07:17:18;;;;;;;14.73;10.30;;;2.70;99.90;;;;;;5077968;28;20079;-82
2020/12/19 07:19:46;;;;;;;10.27;7.95;;;2.80;99.90;;;;;;5078133;28;20075;-82
2020/12/19 07:22:13;;;;;;;12.45;8.43;;;2.90;99.90;;;;;;5078291;28;20079;-82
2020/12/19 07:24:39;;;;;;;11.13;7.47;;;3.00;99.90;;;;;;5079063;28;20469;-82
2020/12/19 07:27:06;;;;;;;10.38;7.57;;;2.90;99.90;;;;;;5170130;22;20050;-90
2020/12/19 07:29:33;;;;;;;9.70;8.32;;;2.70;99.90;;;;;;5077225;28;20109;-89
2020/12/19 07:32:01;;;;;;;10.40;7.13;;;2.60;99.90;;;;;;5075939;28;20393;-89
2020/12/19 07:34:31;;;;;;;11.98;7.47;;;2.50;99.90;;;;;;5076772;28;20366;-89
2020/12/19 07:36:58;;;;;;;8.63;7.28;;;2.30;99.90;;;;;;5076622;28;20368;-90
2020/12/19 07:39:26;;;;;;;20.08;11.00;;;2.20;99.90;;;;;;5076313;28;20041;-90
2020/12/19 07:42:10;;;;;;;12.30;8.85;;;2.20;99.90;;;;;;5076086;28;20460;-88
2020/12/19 07:44:37;;;;;;;;;;;2.40;99.90;;;;;;5076737;28;20102;-89
2020/12/19 07:47:09;;;;;;;9.10;7.40;;;2.60;99.90;;;;;;5075622;28;20379;-89
2020/12/19 07:49:46;;;;;;;8.32;7.25;;;2.70;99.90;;;;;;5074795;28;20412;-89
2020/12/19 07:52:23;;;;;;;8.25;6.93;;;2.60;99.90;;;;;;5075377;28;20040;-89
2020/12/19 07:54:58;;;;;;;10.23;8.15;;;2.50;99.90;;;;;;5075420;28;20400;-90
2020/12/19 07:57:31;;;;;;;10.48;7.88;;;2.60;99.90;;;;;;5075492;28;20392;-88
2020/12/19 07:59:59;;;;;;;10.93;7.45;;;2.60;99.90;;;;;;5075529;28;20072;-88
2020/12/19 08:02:26;;;;;;;9.32;7.38;;;2.60;99.90;;;;;;5076019;28;20106;-89
2020/12/19 08:04:58;;;;;;;9.68;7.35;;;2.70;99.90;;;;;;5075398;28;20465;-90
2020/12/19 08:07:27;;;;;;;12.47;7.70;;;2.90;99.90;;;;;;5075791;28;20044;-89
2020/12/19 08:09:59;;;;;;;8.43;7.07;;;3.10;99.90;;;;;;5076834;28;20377;-88
2020/12/19 08:12:27;;;;;;;8.70;6.53;;;3.30;99.90;;;;;;5075296;28;20048;-89
2020/12/19 08:14:54;;;;;;;6.60;6.00;;;3.30;99.90;;;;;;5075406;28;20036;-89
2020/12/19 08:17:23;;;;;;;9.20;6.47;;;3.20;99.90;;;;;;5075215;28;20392;-87
2020/12/19 08:19:54;;;;;;;8.57;7.07;;;2.90;99.90;;;;;;5076154;28;20123;-90
2020/12/19 08:22:21;;;;;;;8.18;6.68;;;2.90;99.90;;;;;;5075297;28;20479;-89
2020/12/19 08:24:59;;;;;;;10.38;6.50;;;2.90;99.90;;;;;;5075103;28;20440;-89
2020/12/19 08:27:46;;;;;;;8.88;7.68;;;3.00;99.90;;;;;;5075988;28;20430;-88
2020/12/19 08:30:22;;;;;;;11.35;9.05;;;3.10;99.90;;;;;;5075138;28;20388;-90
2020/12/19 08:33:00;;;;;;;8.18;6.00;;;3.00;99.90;;;;;;5075172;28;20447;-89
2020/12/19 08:35:42;;;;;;;8.15;6.72;;;3.10;99.90;;;;;;5075672;28;20370;-90
2020/12/19 08:38:21;;;;;;;7.40;6.60;;;3.30;99.90;;;;;;5075018;28;20036;-87
2020/12/19 08:40:49;;;;;;;5.72;5.22;;;3.40;99.90;;;;;;5075008;28;20443;-90
2020/12/19 08:43:31;;;;;;;6.55;5.50;;;3.50;99.90;;;;;;5074986;28;20428;-89
2020/12/19 08:46:09;;;;;;;8.88;7.03;;;3.50;99.90;;;;;;5075693;28;20389;-90
2020/12/19 08:48:37;;;;;;;6.60;5.90;;;3.50;99.90;;;;;;5075227;28;20053;-90
2020/12/19 08:51:09;;;;;;;9.13;6.00;;;3.40;99.90;;;;;;5074984;28;20047;-91
2020/12/19 08:53:39;;;;;;;8.10;6.20;;;3.30;99.90;;;;;;5075378;28;20424;-89
2020/12/19 08:56:25;;;;;;;12.65;9.27;;;3.40;99.90;;;;;;5075821;28;20460;-89
2020/12/19 08:58:53;;;;;;;7.03;5.28;;;3.20;99.90;;;;;;5075984;28;20052;-89
2020/12/19 09:01:20;;;;;;;6.80;5.75;;;3.00;99.90;;;;;;5075370;28;20465;-90
2020/12/19 09:03:48;;;;;;;7.18;5.45;;;3.20;99.90;;;;;;5075101;28;20492;-89
2020/12/19 09:06:16;;;;;;;6.32;5.68;;;3.30;99.90;;;;;;5074464;28;20461;-90
2020/12/19 09:08:48;;;;;;;6.10;5.40;;;3.50;99.90;;;;;;5074388;28;20389;-91
2020/12/19 09:11:28;;;;;;;6.10;5.50;;;3.60;99.90;;;;;;5074410;28;20074;-90
2020/12/19 09:14:11;;;;;;;6.35;5.75;;;3.60;99.90;;;;;;5074148;28;20055;-91
2020/12/19 09:16:54;;;;;;;5.55;5.00;;;3.70;99.90;;;;;;5074781;28;20388;-90
2020/12/19 09:19:22;;;;;;;5.57;4.72;;;3.70;99.90;;;;;;5074383;28;20388;-89
2020/12/19 09:21:58;;;;;;;5.03;4.53;;;3.90;99.90;;;;;;5074238;28;20422;-89
2020/12/19 09:24:26;;;;;;;6.63;5.30;;;4.00;99.90;;;;;;5074531;28;20397;-89
2020/12/19 09:26:53;;;;;;;4.47;4.13;;;4.10;99.90;;;;;;5073645;28;20381;-86
2020/12/19 09:29:21;;;;;;;4.65;4.25;;;4.20;99.90;;;;;;5074900;28;20388;-92
2020/12/19 09:31:49;;;;;;;4.68;4.15;;;4.20;99.90;;;;;;5074629;28;20051;-89
2020/12/19 09:34:16;;;;;;;5.65;4.28;;;4.20;99.90;;;;;;5073932;28;20397;-90
2020/12/19 09:36:43;;;;;;;4.28;3.97;;;4.20;99.90;;;;;;5074751;28;20373;-90
2020/12/19 09:39:10;;;;;;;4.30;3.90;;;4.20;99.90;;;;;;5090396;28;20384;-90
2020/12/19 09:41:40;;;;;;;4.57;4.18;;;4.10;99.90;;;;;;5077370;28;20374;-89
2020/12/19 09:44:07;;;;;;;4.20;3.90;;;4.20;99.90;;;;;;5074524;28;20508;-88
2020/12/19 09:46:34;;;;;;;4.53;4.13;;;4.20;99.90;;;;;;5073747;28;20390;-90
2020/12/19 09:49:01;;;;;;;4.82;4.43;;;4.30;99.90;;;;;;5073893;28;20397;-90
2020/12/19 09:51:31;;;;;;;4.72;4.32;;;4.30;99.90;;;;;;5073267;28;20048;-90
2020/12/19 09:53:59;;;;;;;4.50;4.20;;;4.40;99.90;;;;;;5074321;28;20059;-89
2020/12/19 09:56:26;;;;;;;4.47;4.13;;;4.40;99.90;;;;;;5074622;28;20527;-88
2020/12/19 09:58:53;;;;;;;6.95;4.32;;;4.40;99.90;;;;;;5074496;28;20048;-89
2020/12/19 10:01:20;;;;;;;4.72;4.10;;;4.50;99.90;;;;;;5073838;28;20366;-89
2020/12/19 10:03:47;;;;;;;5.18;3.92;;;4.60;99.90;;;;;;5074920;28;20051;-89
2020/12/19 10:06:14;;;;;;;4.05;3.75;;;4.60;99.90;;;;;;5075175;28;20443;-90
2020/12/19 10:08:41;;;;;;;4.13;3.72;;;4.70;99.90;;;;;;5074963;28;20377;-90
2020/12/19 10:11:08;;;;;;;3.85;3.45;;;4.70;99.90;;;;;;5074180;28;20427;-89
2020/12/19 10:13:36;;;;;;;3.97;3.60;;;4.70;99.90;;;;;;5075638;28;20386;-90
2020/12/19 10:16:04;;;;;;;4.45;4.05;;;4.80;99.90;;;;;;5077402;28;20487;-90
2020/12/19 10:18:32;;;;;;;3.95;3.65;;;4.80;99.90;;;;;;5077276;28;20369;-89
2020/12/19 10:21:01;;;;;;;5.35;4.60;;;4.80;99.90;;;;;;5078599;28;20049;-89
2020/12/19 10:23:29;;;;;;;4.65;4.25;;;4.80;99.90;;;;;;5077199;28;20393;-91
2020/12/19 10:25:57;;;;;;;3.90;3.60;;;4.80;99.90;;;;;;5077240;28;20405;-90
2020/12/19 10:28:24;;;;;;;4.13;3.83;;;4.80;99.90;;;;;;5076947;28;20489;-89
2020/12/19 10:30:51;;;;;;;4.50;4.00;;;4.90;99.90;;;;;;5077043;28;20378;-90
2020/12/19 10:33:20;;;;;;;4.18;3.88;;;4.90;99.90;;;;;;5078975;28;20365;-89
2020/12/19 10:35:47;;;;;;;6.50;5.88;;;4.90;99.90;;;;;;5076953;28;20075;-89
2020/12/19 10:38:18;;;;;;;4.68;4.20;;;4.90;99.90;;;;;;5077556;28;20467;-90
2020/12/19 10:40:58;;;;;;;4.75;4.10;;;5.00;99.90;;;;;;5077193;28;20412;-90
2020/12/19 10:43:25;;;;;;;3.60;3.33;;;5.10;99.90;;;;;;5077835;28;20366;-89
2020/12/19 10:45:52;;;;;;;3.63;3.40;;;5.10;99.90;;;;;;5077359;28;20378;-91
2020/12/19 10:48:19;;;;;;;3.50;3.20;;;5.20;99.90;;;;;;5076819;28;20404;-89
2020/12/19 10:50:46;;;;;;;3.42;3.13;;;5.20;99.90;;;;;;5076510;28;20543;-89
2020/12/19 10:53:13;;;;;;;3.72;3.45;;;5.20;99.90;;;;;;5076322;28;20385;-90
2020/12/19 10:55:40;;;;;;;3.80;3.50;;;5.30;99.90;;;;;;5077439;28;20052;-89
2020/12/19 10:58:07;;;;;;;4.18;3.42;;;5.30;99.90;;;;;;5077581;28;20416;-90
2020/12/19 11:00:34;;;;;;;4.30;3.47;;;5.30;99.90;;;;;;5076736;28;20392;-89
2020/12/19 11:03:01;;;;;;;3.63;3.33;;;5.30;99.90;;;;;;5076815;28;20408;-89
2020/12/19 11:05:27;;;;;;;3.63;3.38;;;5.30;99.90;;;;;;5077152;28;20380;-89
2020/12/19 11:07:55;;;;;;;3.95;3.65;;;5.40;99.90;;;;;;5076810;28;20044;-89
2020/12/19 11:10:22;;;;;;;3.67;3.45;;;5.40;99.90;;;;;;5077679;28;20485;-88
2020/12/19 11:12:49;;;;;;;3.63;3.42;;;5.50;99.90;;;;;;5076343;28;20420;-89
2020/12/19 11:15:15;;;;;;;3.83;3.47;;;5.50;99.90;;;;;;5076756;28;20384;-90
2020/12/19 11:17:43;;;;;;;4.00;3.70;;;5.60;99.90;;;;;;5077227;28;20399;-90
2020/12/19 11:20:10;;;;;;;4.68;4.28;;;5.60;99.90;;;;;;5076290;28;20389;-91
2020/12/19 11:22:37;;;;;;;3.67;3.13;;;5.60;99.90;;;;;;5076409;28;20044;-91
2020/12/19 11:25:04;;;;;;;3.50;3.20;;;5.60;99.90;;;;;;5074886;28;20461;-91
2020/12/19 11:27:31;;;;;;;3.90;3.47;;;5.60;99.90;;;;;;5076135;28;20076;-91
2020/12/19 11:29:58;;;;;;;3.88;3.53;;;5.70;99.90;;;;;;5076151;28;20076;-88
2020/12/19 11:32:25;;;;;;;3.33;2.85;;;5.80;99.90;;;;;;5076437;28;20400;-90
2020/12/19 11:34:53;;;;;;;3.38;3.15;;;5.80;99.90;;;;;;5076356;28;20392;-91
2020/12/19 11:37:20;;;;;;;4.43;3.53;;;6.00;99.90;;;;;;5076643;28;20360;-89
2020/12/19 11:39:48;;;;;;;3.28;3.08;;;6.10;99.90;;;;;;5076994;28;20381;-88
2020/12/19 11:42:15;;;;;;;3.33;3.00;;;6.80;99.90;;;;;;5075603;28;20400;-90
2020/12/19 11:44:42;;;;;;;3.95;3.47;;;7.10;99.90;;;;;;5075590;28;20393;-88
2020/12/19 11:47:11;;;;;;;3.10;2.90;;;7.00;99.90;;;;;;5075520;28;20444;-89
2020/12/19 11:49:38;;;;;;;3.67;3.38;;;6.90;99.90;;;;;;5076112;28;20358;-91
2020/12/19 11:52:09;;;;;;;4.00;3.70;;;6.80;99.90;;;;;;5077322;28;20392;-89
2020/12/19 11:54:37;;;;;;;5.30;3.78;;;6.70;99.90;;;;;;5092796;28;20388;-90
2020/12/19 11:57:05;;;;;;;3.70;3.40;;;6.70;99.90;;;;;;5079254;28;20370;-90
2020/12/19 11:59:33;;;;;;;3.58;3.28;;;6.80;99.90;;;;;;5075307;28;20393;-91
2020/12/19 12:02:01;;;;;;;4.43;3.03;;;6.90;99.90;;;;;;5075908;28;20385;-89
2020/12/19 12:04:28;;;;;;;3.28;3.08;;;6.90;99.90;;;;;;5076126;28;20392;-90
2020/12/19 12:06:55;;;;;;;4.32;3.53;;;6.80;99.90;;;;;;5075421;28;20370;-87
2020/12/19 12:09:23;;;;;;;3.05;2.85;;;6.70;99.90;;;;;;5075477;28;20409;-89
2020/12/19 12:11:51;;;;;;;5.28;3.30;;;6.60;99.90;;;;;;5075467;28;20442;-90
2020/12/19 12:14:19;;;;;;;3.40;3.20;;;6.50;99.90;;;;;;5075603;28;20539;-90
2020/12/19 12:16:45;;;;;;;4.57;3.17;;;6.40;99.90;;;;;;5074922;28;20381;-90
2020/12/19 12:19:13;;;;;;;3.97;3.20;;;6.30;99.90;;;;;;5075136;28;20047;-89
2020/12/19 12:21:41;;;;;;;7.53;3.25;;;6.20;99.90;;;;;;5075111;28;20400;-90
2020/12/19 12:24:09;;;;;;;4.47;3.40;;;6.20;99.90;;;;;;5075812;28;20398;-88
2020/12/19 12:26:37;;;;;;;4.25;3.47;;;6.10;99.90;;;;;;5076024;28;20369;-91
2020/12/19 12:29:04;;;;;;;3.42;3.13;;;6.00;99.90;;;;;;5074660;28;20397;-90
2020/12/19 12:31:33;;;;;;;13.38;8.23;;;6.10;99.90;;;;;;5074947;28;20401;-89
2020/12/19 12:34:01;;;;;;;3.22;2.97;;;5.90;99.90;;;;;;5075380;28;20366;-89
2020/12/19 12:36:29;;;;;;;3.92;3.30;;;6.00;99.90;;;;;;5074660;28;20477;-89
2020/12/19 12:38:58;;;;;;;2.83;2.63;;;6.00;99.90;;;;;;5074676;28;20057;-90
2020/12/19 12:41:26;;;;;;;8.23;3.45;;;6.10;99.90;;;;;;5074695;28;20362;-89
2020/12/19 12:43:53;;;;;;;6.63;4.22;;;6.20;99.90;;;;;;5075922;28;20370;-89
2020/12/19 12:46:20;;;;;;;3.00;2.78;;;6.30;99.90;;;;;;5074528;28;20392;-90
2020/12/19 12:48:48;;;;;;;3.30;3.05;;;6.20;99.90;;;;;;5074629;28;20393;-89
2020/12/19 12:51:17;;;;;;;3.72;3.10;;;6.30;99.90;;;;;;5075092;28;20389;-89